Currently 60°F in Perris, California, USA
60°F
60°F / 57°F
calm
0.00"
Wednesday, November 14, 2018 1:21 AM PST

Perris, California Weather Summary
Last 36 Hours

Temperature Winds Hourly Humidity Dewpoint
Time Report Norm Report Norm Max Gusts Precip. Rpt. Norm Rpt. Norm Pressure
1Wed 01:21 AM  59.6°F  54°F  calm  1 mph  10 mph  0.00"  19%  60%  15°F  40°F  N/A
2Wed 01:20 AM  59.7°F  54°F  calm  1 mph  10 mph  ----  19%  60%  15°F  40°F  N/A
Wed 01:00 AM  58.8°F  54°F  2 mph W  1 mph  7 mph  0.00"  23%  60%  20°F  40°F  N/A
3Wed 12:03 AM  56.7°F  56°F  calm  1 mph  3 mph  ----  22%  58%  16°F  41°F  N/A
Wed 12:00 AM  56.8°F  56°F  calm  1 mph  8 mph  0.00"  22%  58%  17°F  41°F  N/A
Tue 11:00 PM  59.6°F  57°F  calm  1 mph  19 mph  0.00"  18%  56%  14°F  41°F  N/A
Tue 10:00 PM  62.6°F  59°F  3 mph S  1 mph  25 mph  0.00"  16%  54%  13°F  41°F  N/A
Tue 09:00 PM  63.2°F  60°F  5 mph S  2 mph  36 mph  0.00"  15%  51%  13°F  41°F  N/A
Tue 08:00 PM  63.4°F  62°F  11 mph E  2 mph  24 mph  0.00"  15%  48%  13°F  41°F  N/A
Tue 07:00 PM  64.1°F  63°F  9 mph NE  3 mph  22 mph  0.00"  16%  45%  15°F  40°F  N/A
Tue 06:00 PM  63.9°F  65°F  8 mph S  3 mph  30 mph  0.00"  16%  41%  15°F  40°F  N/A
Tue 05:00 PM  64.2°F  67°F  9 mph S  4 mph  25 mph  0.00"  15%  36%  14°F  39°F  N/A
Tue 04:00 PM  65.9°F  71°F  6 mph SE  4 mph  27 mph  0.00"  15%  31%  15°F  38°F  N/A
Tue 03:00 PM  65.7°F  73°F  7 mph E  4 mph  26 mph  0.00"  15%  28%  15°F  37°F  N/A
Tue 02:00 PM  67.3°F  73°F  6 mph SE  4 mph  29 mph  0.00"  14%  27%  15°F  36°F  N/A
Tue 01:00 PM  67.5°F  73°F  11 mph E  4 mph  33 mph  0.00"  13%  28%  14°F  37°F  N/A
Tue 12:00 PM  66.3°F  72°F  9 mph SE  3 mph  32 mph  0.00"  15%  30%  14°F  38°F  N/A
Tue 11:00 AM  63.8°F  69°F  10 mph E  3 mph  30 mph  0.00"  15%  36%  13°F  40°F  N/A
Tue 10:00 AM  63.4°F  65°F  10 mph E  2 mph  27 mph  0.00"  14%  44%  12°F  42°F  N/A
Tue 09:00 AM  62.3°F  60°F  10 mph S  2 mph  33 mph  0.00"  16%  55%  13°F  43°F  N/A
Tue 08:00 AM  59.5°F  54°F  8 mph E  2 mph  26 mph  0.00"  18%  64%  14°F  41°F  N/A
Tue 07:00 AM  58.2°F  50°F  12 mph SE  1 mph  27 mph  0.00"  19%  68%  14°F  39°F  N/A
Tue 06:00 AM  58.0°F  50°F  5 mph E  1 mph  27 mph  0.00"  19%  67%  14°F  39°F  N/A
Tue 05:00 AM  58.7°F  51°F  8 mph S  1 mph  30 mph  0.00"  18%  66%  13°F  39°F  N/A
Tue 04:00 AM  58.8°F  51°F  7 mph SW  1 mph  29 mph  0.00"  18%  66%  13°F  40°F  N/A
Tue 03:00 AM  58.9°F  52°F  7 mph SE  1 mph  29 mph  0.00"  18%  64%  13°F  40°F  N/A
Tue 02:00 AM  59.3°F  53°F  6 mph SW  1 mph  23 mph  0.00"  17%  63%  13°F  40°F  N/A
Tue 01:00 AM  59.0°F  55°F  6 mph SE  1 mph  27 mph  0.00"  17%  61%  13°F  41°F  N/A
Tue 12:00 AM  59.7°F  56°F  8 mph S  1 mph  27 mph  0.00"  17%  59%  12°F  41°F  N/A
Mon 11:00 PM  60.6°F  57°F  10 mph SE  1 mph  23 mph  0.00"  16%  57%  11°F  42°F  N/A
Mon 10:00 PM  60.8°F  59°F  8 mph SE  1 mph  34 mph  0.00"  18%  55%  15°F  42°F  N/A
Mon 09:00 PM  61.6°F  60°F  9 mph S  2 mph  37 mph  0.00"  15%  52%  12°F  42°F  N/A
Mon 08:00 PM  62.6°F  62°F  11 mph S  2 mph  29 mph  0.00"  14%  48%  11°F  41°F  N/A
Mon 07:00 PM  62.3°F  63°F  9 mph S  3 mph  22 mph  0.00"  15%  45%  11°F  41°F  N/A
Mon 06:00 PM  63.1°F  65°F  8 mph S  3 mph  24 mph  0.00"  14%  41%  11°F  40°F  N/A
Mon 05:00 PM  63.5°F  68°F  8 mph S  4 mph  21 mph  0.00"  14%  37%  12°F  39°F  N/A
Mon 04:00 PM  65.9°F  71°F  4 mph S  4 mph  20 mph  0.00"  13%  32%  12°F  38°F  N/A
Mon 03:00 PM  67.1°F  73°F  5 mph S  4 mph  21 mph  0.00"  14%  29%  13°F  38°F  N/A
Mon 02:00 PM  69.3°F  74°F  6 mph S  4 mph  18 mph  0.00"  13%  28%  14°F  37°F  N/A

  1. Current weather data. No green row appears if the current weather data is also the high or low for the current day.
  2. High temperature for the current day.
  3. Low temperature for the current day.

The Perris, California weather pages are a service of WeatherCurrents. Perris is located in Southern California's Inland Empire, south of Riverside and north of Sun City, along the Interstate 215 freeway.
Copyright ©Wed Nov 14 01:22:08 PST 2018  WeatherCurrents. All rights reserved. - Submit questions and comments - Privacy Policy

This page automatically refreshes every 10 minutes.